Time;durP1;ratioP1;P1;durP2;ratioP2;P2;SDS_P1;SDS_P2;PMS_P1;PMS_P2;Temp;Humidity;BMP_temperature;BMP_pressure;BME280_temperature;BME280_humidity;BME280_pressure;Samples;Min_cycle;Max_cycle;Signal;HPM_P1;HPM_P2
2022/06/29 00:02:10;;;;;;;5.47;5.18;;;20.80;58.20;;;;;;20468;6863;309512;31
2022/06/29 00:04:35;;;;;;;5.40;5.10;;;21.00;58.40;;;;;;20696;6861;118623;31
2022/06/29 00:07:01;;;;;;;5.00;4.70;;;21.00;58.20;;;;;;20691;6862;116953;31
2022/06/29 00:09:27;;;;;;;5.30;5.00;;;20.80;58.50;;;;;;20694;6862;117223;31
2022/06/29 00:11:52;;;;;;;4.68;4.40;;;20.60;58.80;;;;;;20461;6862;279053;31
2022/06/29 00:14:18;;;;;;;5.30;4.80;;;20.80;58.50;;;;;;20472;6862;309396;31
2022/06/29 00:16:43;;;;;;;4.90;4.60;;;21.20;57.60;;;;;;20487;6862;308458;31
2022/06/29 00:19:09;;;;;;;6.03;5.70;;;21.40;56.60;;;;;;20492;6862;291989;31
2022/06/29 00:21:34;;;;;;;5.55;5.25;;;21.60;56.40;;;;;;20681;6862;147700;31
2022/06/29 00:24:01;;;;;;;6.97;5.20;;;21.40;56.50;;;;;;20705;6862;117213;31
2022/06/29 00:26:27;;;;;;;5.77;5.33;;;21.10;57.30;;;;;;20697;6862;117086;31
2022/06/29 00:28:52;;;;;;;6.03;5.70;;;20.80;58.00;;;;;;20491;6862;280196;31
2022/06/29 00:31:18;;;;;;;6.20;5.80;;;20.90;58.50;;;;;;20456;6862;280636;31
2022/06/29 00:33:43;;;;;;;5.20;4.90;;;21.20;58.20;;;;;;20680;6862;117531;31
2022/06/29 00:36:09;;;;;;;5.40;5.00;;;21.10;58.20;;;;;;20664;6862;119430;31
2022/06/29 00:38:35;;;;;;;5.72;5.22;;;20.80;58.50;;;;;;20492;6862;278748;31
2022/06/29 00:41:00;;;;;;;5.37;5.07;;;20.90;58.50;;;;;;20693;6862;117053;31
2022/06/29 00:43:26;;;;;;;6.43;5.87;;;20.80;58.50;;;;;;20701;6863;117017;31
2022/06/29 00:45:51;;;;;;;6.62;6.07;;;20.60;58.90;;;;;;20678;6863;121517;31
2022/06/29 00:48:17;;;;;;;6.93;6.32;;;20.40;59.20;;;;;;20701;6863;116940;31
2022/06/29 00:50:44;;;;;;;5.70;5.30;;;20.30;59.70;;;;;;20689;6863;117060;31
2022/06/29 00:53:09;;;;;;;6.40;6.00;;;20.10;60.00;;;;;;20479;6863;300653;31
2022/06/29 00:55:35;;;;;;;7.45;6.35;;;20.40;59.80;;;;;;20455;6863;298178;31
2022/06/29 00:58:00;;;;;;;6.40;6.00;;;20.80;58.60;;;;;;20677;6863;118482;31
2022/06/29 01:00:26;;;;;;;6.57;6.00;;;20.80;58.50;;;;;;20686;6863;117484;31
2022/06/29 01:02:52;;;;;;;6.43;5.97;;;20.50;58.90;;;;;;20483;6863;310936;31
2022/06/29 01:05:17;;;;;;;7.62;7.12;;;20.70;59.50;;;;;;20482;6863;310336;31
2022/06/29 01:07:43;;;;;;;7.40;6.95;;;21.00;58.90;;;;;;20477;6863;279124;31
2022/06/29 01:10:08;;;;;;;6.67;6.23;;;21.20;58.30;;;;;;20735;6863;117391;31
2022/06/29 01:12:34;;;;;;;6.55;6.25;;;21.00;58.30;;;;;;20468;6863;300583;31
2022/06/29 01:14:59;;;;;;;5.85;5.53;;;21.10;58.20;;;;;;20698;6861;117487;31
2022/06/29 01:17:25;;;;;;;6.60;6.28;;;20.90;58.40;;;;;;20494;6862;295405;31
2022/06/29 01:19:51;;;;;;;7.13;6.73;;;21.00;58.30;;;;;;20476;6862;312821;31
2022/06/29 01:22:16;;;;;;;6.43;5.85;;;21.20;57.70;;;;;;20683;6862;116167;31
2022/06/29 01:24:44;;;;;;;5.80;5.50;;;21.00;58.40;;;;;;20692;6862;117669;31
2022/06/29 01:27:08;;;;;;;5.73;5.43;;;20.70;58.50;;;;;;20683;6862;117270;31
2022/06/29 01:29:34;;;;;;;6.97;6.37;;;20.40;59.20;;;;;;20468;6862;309550;31
2022/06/29 01:32:00;;;;;;;6.40;6.00;;;20.60;59.10;;;;;;20478;6862;281201;31
2022/06/29 01:34:25;;;;;;;6.62;6.25;;;20.90;58.40;;;;;;20471;6862;342108;31
2022/06/29 01:36:51;;;;;;;6.60;6.20;;;21.10;57.80;;;;;;20688;6862;117040;31
2022/06/29 01:39:16;;;;;;;7.53;7.00;;;21.00;58.00;;;;;;20480;6862;279640;31
2022/06/29 01:41:42;;;;;;;7.30;6.80;;;21.00;58.00;;;;;;20450;6862;308961;31
2022/06/29 01:44:07;;;;;;;6.33;6.00;;;21.20;57.60;;;;;;20677;6862;117361;31
2022/06/29 01:46:34;;;;;;;6.43;5.93;;;21.00;57.80;;;;;;20690;6862;118067;31
2022/06/29 01:48:59;;;;;;;6.67;6.13;;;20.70;58.80;;;;;;20691;6862;117593;31
2022/06/29 01:51:24;;;;;;;7.03;6.67;;;20.40;59.00;;;;;;20677;6862;117873;31
2022/06/29 01:53:50;;;;;;;6.40;6.10;;;20.20;59.50;;;;;;20457;6863;307907;31
2022/06/29 01:56:15;;;;;;;6.57;6.28;;;20.40;59.30;;;;;;20471;6863;339547;31
2022/06/29 01:58:41;;;;;;;7.03;6.62;;;20.80;58.40;;;;;;20474;6863;306999;31
2022/06/29 02:01:06;;;;;;;7.05;6.35;;;21.00;57.50;;;;;;20476;6863;338613;31
2022/06/29 02:03:32;;;;;;;6.47;6.17;;;21.20;56.90;;;;;;20688;6863;144668;31
2022/06/29 02:05:58;;;;;;;6.55;6.00;;;21.00;57.20;;;;;;20476;6863;308693;31
2022/06/29 02:08:23;;;;;;;6.03;5.70;;;21.00;57.40;;;;;;20692;6863;118422;31
2022/06/29 02:10:49;;;;;;;5.90;5.50;;;20.90;57.80;;;;;;20685;6863;117694;31
2022/06/29 02:13:15;;;;;;;6.73;6.40;;;20.60;58.20;;;;;;20472;6863;310037;31
2022/06/29 02:15:41;;;;;;;6.80;6.40;;;20.70;58.40;;;;;;20670;6863;117152;31
2022/06/29 02:18:06;;;;;;;9.07;6.03;;;20.50;58.50;;;;;;20685;6863;122340;31
2022/06/29 02:20:32;;;;;;;7.03;6.43;;;20.30;59.10;;;;;;20470;6863;279874;31
2022/06/29 02:22:58;;;;;;;6.20;5.90;;;20.40;59.10;;;;;;20684;6863;118235;31
2022/06/29 02:25:23;;;;;;;6.97;6.47;;;20.40;59.20;;;;;;20465;6863;296863;31
2022/06/29 02:27:49;;;;;;;6.80;6.20;;;20.60;59.10;;;;;;20457;6861;279743;31
2022/06/29 02:30:14;;;;;;;6.30;5.80;;;20.80;58.60;;;;;;20470;6862;280642;31
2022/06/29 02:35:25;;;;;;;5.57;5.30;;;20.90;58.10;;;;;;20680;6862;117369;31
2022/06/29 02:37:51;;;;;;;5.77;5.37;;;20.60;58.90;;;;;;20665;6862;117341;31
2022/06/29 02:40:16;;;;;;;6.80;6.40;;;20.40;59.40;;;;;;20464;6862;309944;31
2022/06/29 02:42:42;;;;;;;6.80;6.00;;;20.50;59.20;;;;;;20682;6862;117394;31
2022/06/29 02:45:07;;;;;;;6.20;5.80;;;20.50;59.20;;;;;;20686;6862;116968;31
2022/06/29 02:47:33;;;;;;;6.70;6.30;;;20.30;59.60;;;;;;20462;6862;279532;31
2022/06/29 02:49:59;;;;;;;6.20;5.90;;;20.40;59.60;;;;;;20689;6862;117162;31
2022/06/29 02:52:25;;;;;;;6.90;6.60;;;20.40;59.50;;;;;;20468;6862;308812;31
2022/06/29 02:54:51;;;;;;;6.07;5.77;;;20.50;59.20;;;;;;20683;6862;119031;31
2022/06/29 02:57:16;;;;;;;6.53;6.10;;;20.40;59.10;;;;;;20693;6862;117226;31
2022/06/29 02:59:42;;;;;;;7.00;6.60;;;20.20;59.60;;;;;;20463;6862;279273;31
2022/06/29 03:02:07;;;;;;;6.60;6.10;;;20.30;59.50;;;;;;20687;6862;117197;31
2022/06/29 03:04:34;;;;;;;6.97;6.57;;;20.20;59.40;;;;;;20459;6862;310137;31
2022/06/29 03:06:59;;;;;;;6.30;5.93;;;20.30;59.30;;;;;;20679;6863;117481;31
2022/06/29 03:09:24;;;;;;;7.35;6.90;;;20.20;59.20;;;;;;20480;6863;279015;31
2022/06/29 03:11:50;;;;;;;6.83;6.17;;;20.30;59.20;;;;;;20666;6863;118042;31
2022/06/29 03:14:15;;;;;;;7.12;6.53;;;20.20;59.30;;;;;;20471;6863;308419;31
2022/06/29 03:16:41;;;;;;;6.70;6.20;;;20.20;59.30;;;;;;20685;6863;119237;31
2022/06/29 03:19:06;;;;;;;6.87;6.37;;;20.10;59.50;;;;;;20692;6863;117279;31
2022/06/29 03:21:32;;;;;;;6.73;5.90;;;19.90;60.00;;;;;;20678;6863;120880;31
2022/06/29 03:23:58;;;;;;;6.60;6.03;;;19.70;60.30;;;;;;20334;6863;310181;31
2022/06/29 03:26:23;;;;;;;6.93;6.22;;;19.80;60.30;;;;;;20680;6863;117513;31
2022/06/29 03:28:52;;;;;;;7.75;7.15;;;19.80;60.30;;;;;;20477;6863;279171;31
2022/06/29 03:31:14;;;;;;;6.77;6.37;;;19.90;59.90;;;;;;20672;6863;117000;31
2022/06/29 03:33:40;;;;;;;6.27;5.97;;;19.90;60.00;;;;;;20664;6863;117938;31
2022/06/29 03:36:05;;;;;;;6.67;6.20;;;19.70;60.40;;;;;;20687;6863;117238;31
2022/06/29 03:38:31;;;;;;;7.67;7.17;;;19.50;60.90;;;;;;20470;6861;308509;31
2022/06/29 03:40:57;;;;;;;6.83;6.10;;;19.70;60.80;;;;;;20685;6862;116930;31
2022/06/29 03:43:22;;;;;;;7.37;6.97;;;19.70;60.60;;;;;;20469;6862;312949;31
2022/06/29 03:45:48;;;;;;;8.30;7.50;;;19.80;60.30;;;;;;20464;6862;308300;31
2022/06/29 03:48:15;;;;;;;7.57;7.18;;;20.20;59.90;;;;;;20699;6862;117267;31
2022/06/29 03:50:39;;;;;;;7.13;6.57;;;20.10;59.80;;;;;;20690;6862;116980;31
2022/06/29 03:53:04;;;;;;;8.02;7.43;;;19.80;60.30;;;;;;20481;6862;307060;31
2022/06/29 03:55:30;;;;;;;7.90;7.37;;;19.90;60.30;;;;;;20477;6862;337725;31
2022/06/29 03:57:56;;;;;;;6.93;6.37;;;20.20;59.70;;;;;;20671;6862;121467;31
2022/06/29 04:00:21;;;;;;;7.13;6.43;;;20.10;59.70;;;;;;20690;6862;116994;31
2022/06/29 04:02:47;;;;;;;7.30;6.80;;;19.80;60.10;;;;;;20482;6862;279010;31
2022/06/29 04:05:12;;;;;;;7.35;6.95;;;20.00;60.00;;;;;;20486;6862;278311;31
2022/06/29 04:07:38;;;;;;;7.03;6.50;;;20.20;59.10;;;;;;20676;6862;118162;31
2022/06/29 04:10:03;;;;;;;6.73;6.23;;;20.20;59.30;;;;;;20684;6862;118176;31
2022/06/29 04:12:29;;;;;;;7.53;6.82;;;19.90;59.90;;;;;;20482;6862;307782;31
2022/06/29 04:14:55;;;;;;;6.73;6.30;;;20.00;59.80;;;;;;20685;6862;117176;31
2022/06/29 04:17:20;;;;;;;6.87;6.37;;;19.90;59.90;;;;;;20695;6863;119048;31
2022/06/29 04:19:46;;;;;;;7.60;7.00;;;19.70;60.30;;;;;;20457;6863;341308;31
2022/06/29 04:22:11;;;;;;;6.28;5.97;;;19.90;60.30;;;;;;20691;6863;117677;31
2022/06/29 04:24:37;;;;;;;7.40;7.00;;;19.80;60.30;;;;;;20485;6863;279062;31
2022/06/29 04:27:03;;;;;;;7.83;7.13;;;20.00;59.90;;;;;;20478;6863;309352;31
2022/06/29 04:29:29;;;;;;;6.97;6.37;;;20.30;59.10;;;;;;20693;6863;116978;31
2022/06/29 04:31:55;;;;;;;7.33;6.87;;;20.20;59.10;;;;;;20458;6863;311472;31
2022/06/29 04:34:20;;;;;;;6.82;6.43;;;20.30;58.90;;;;;;20485;6863;309021;31
2022/06/29 04:36:46;;;;;;;7.80;6.17;;;20.50;58.30;;;;;;20699;6863;119037;31
2022/06/29 04:39:13;;;;;;;6.75;6.10;;;20.40;58.50;;;;;;20694;6863;122262;31
2022/06/29 04:41:38;;;;;;;7.77;7.23;;;20.10;59.10;;;;;;20472;6863;278320;31
2022/06/29 04:44:04;;;;;;;9.00;8.43;;;20.20;59.30;;;;;;20495;6863;308018;31
2022/06/29 04:46:30;;;;;;;7.93;7.53;;;20.40;58.60;;;;;;20705;6863;116899;31
2022/06/29 04:48:59;;;;;;;7.67;7.20;;;20.30;58.90;;;;;;20715;6863;118034;31
2022/06/29 04:51:24;;;;;;;7.70;7.07;;;20.00;59.60;;;;;;20694;6861;117106;31
2022/06/29 04:53:53;;;;;;;8.07;7.68;;;19.80;60.30;;;;;;20464;6862;336170;31
2022/06/29 04:56:15;;;;;;;8.40;7.90;;;20.00;60.40;;;;;;20475;6862;279564;31
2022/06/29 04:58:41;;;;;;;8.38;7.82;;;20.30;59.70;;;;;;20485;6862;338913;31
2022/06/29 05:01:06;;;;;;;7.80;7.30;;;20.60;59.00;;;;;;20471;6862;310249;31
2022/06/29 05:03:32;;;;;;;7.80;7.30;;;20.80;58.30;;;;;;20487;6862;308809;31
2022/06/29 05:05:58;;;;;;;8.37;7.77;;;20.90;58.00;;;;;;20316;6862;308308;31
2022/06/29 05:08:23;;;;;;;8.37;7.60;;;21.10;57.50;;;;;;20698;6862;117586;31
2022/06/29 05:10:49;;;;;;;8.40;7.90;;;20.90;58.60;;;;;;20485;6862;309527;31
2022/06/29 05:13:14;;;;;;;8.77;8.07;;;20.90;58.00;;;;;;20488;6862;310073;31
2022/06/29 05:15:40;;;;;;;7.53;6.90;;;21.10;57.60;;;;;;20684;6862;117452;31
2022/06/29 05:18:05;;;;;;;8.15;7.60;;;20.90;57.90;;;;;;20469;6862;337660;31
2022/06/29 05:20:31;;;;;;;7.77;7.20;;;21.00;58.00;;;;;;20697;6862;116685;31
2022/06/29 05:22:58;;;;;;;6.47;6.18;;;20.80;58.10;;;;;;20738;6862;119508;31
2022/06/29 05:25:24;;;;;;;7.17;6.50;;;20.60;58.70;;;;;;20738;6862;117023;31
2022/06/29 05:27:49;;;;;;;8.20;7.47;;;20.40;59.20;;;;;;20524;6863;323617;31
2022/06/29 05:30:15;;;;;;;6.97;6.57;;;20.60;58.90;;;;;;20723;6863;116355;31
2022/06/29 05:32:40;;;;;;;8.00;7.50;;;20.60;59.00;;;;;;20525;6863;307985;31
2022/06/29 05:35:07;;;;;;;7.40;6.70;;;20.80;58.70;;;;;;20737;6863;116192;31
2022/06/29 05:37:32;;;;;;;7.20;6.60;;;20.80;58.70;;;;;;20738;6863;116574;31
2022/06/29 05:39:57;;;;;;;7.85;7.03;;;20.60;59.10;;;;;;20705;6863;119733;31
2022/06/29 05:42:23;;;;;;;7.60;6.90;;;20.50;59.60;;;;;;20672;6863;116929;31
2022/06/29 05:44:48;;;;;;;7.80;7.10;;;20.50;60.00;;;;;;20686;6863;117548;31
2022/06/29 05:47:14;;;;;;;7.50;6.80;;;20.50;60.50;;;;;;20672;6863;117513;31
2022/06/29 05:49:40;;;;;;;7.25;6.65;;;20.60;60.70;;;;;;20671;6863;120034;31
2022/06/29 05:52:05;;;;;;;7.17;6.77;;;20.80;60.90;;;;;;20482;6863;309535;31
2022/06/29 05:54:31;;;;;;;7.15;6.75;;;21.20;59.80;;;;;;20483;6863;321223;31
2022/06/29 05:56:56;;;;;;;9.80;7.23;;;21.80;58.60;;;;;;20692;6863;120951;31
2022/06/29 05:59:22;;;;;;;7.12;6.68;;;22.00;58.30;;;;;;20487;6863;309907;31
2022/06/29 06:01:47;;;;;;;7.20;6.60;;;22.20;57.10;;;;;;20462;6861;327812;31
2022/06/29 06:04:13;;;;;;;7.00;6.60;;;22.50;56.30;;;;;;20698;6862;120634;31
2022/06/29 06:06:39;;;;;;;7.22;6.78;;;22.40;56.40;;;;;;20475;6862;307528;31
2022/06/29 06:09:04;;;;;;;7.00;6.60;;;22.50;55.90;;;;;;20694;6862;117404;31
2022/06/29 06:11:30;;;;;;;7.57;7.07;;;22.30;56.20;;;;;;20475;6862;289998;31
2022/06/29 06:13:55;;;;;;;6.73;6.27;;;22.30;56.20;;;;;;20680;6862;118226;31
2022/06/29 06:16:21;;;;;;;8.18;7.57;;;22.20;56.50;;;;;;20481;6862;308794;31
2022/06/29 06:18:46;;;;;;;7.90;7.37;;;22.20;56.50;;;;;;20489;6862;308161;31
2022/06/29 06:21:13;;;;;;;6.80;6.40;;;22.40;55.50;;;;;;20692;6862;117892;31
2022/06/29 06:23:38;;;;;;;7.20;6.80;;;22.30;56.40;;;;;;20674;6862;117055;31
2022/06/29 06:26:03;;;;;;;4.10;3.83;;;22.00;57.00;;;;;;20686;6862;117630;31
2022/06/29 06:28:29;;;;;;;4.60;3.70;;;22.00;58.00;;;;;;20704;6862;116986;31
2022/06/29 06:30:54;;;;;;;5.10;3.65;;;22.10;58.10;;;;;;20660;6862;117045;31
2022/06/29 06:33:20;;;;;;;5.17;4.53;;;22.40;57.70;;;;;;20698;6862;117007;31
2022/06/29 06:35:45;;;;;;;4.65;4.45;;;22.60;57.20;;;;;;20662;6862;126860;31
2022/06/29 06:38:13;;;;;;;4.07;3.77;;;22.80;56.90;;;;;;20486;6862;311883;31
2022/06/29 06:43:23;;;;;;;4.33;4.13;;;24.10;54.30;;;;;;20715;6863;121072;31
2022/06/29 06:45:49;;;;;;;3.93;3.73;;;24.60;54.30;;;;;;20671;6863;117667;31
2022/06/29 06:48:15;;;;;;;4.20;4.00;;;25.00;54.20;;;;;;20685;6863;117574;31
2022/06/29 06:50:41;;;;;;;4.00;3.70;;;25.60;53.70;;;;;;20477;6863;278841;31
2022/06/29 06:53:06;;;;;;;4.10;3.80;;;26.30;49.00;;;;;;20472;6863;280954;31
2022/06/29 06:55:32;;;;;;;3.90;3.60;;;27.30;47.30;;;;;;20473;6863;311912;31
2022/06/29 06:57:57;;;;;;;3.95;3.75;;;28.20;45.50;;;;;;20485;6863;284226;31
2022/06/29 07:00:23;;;;;;;4.62;4.20;;;28.90;44.30;;;;;;20468;6863;310453;31
2022/06/29 07:02:48;;;;;;;4.43;4.23;;;29.60;43.20;;;;;;20683;6863;117462;31
2022/06/29 07:05:14;;;;;;;4.78;4.40;;;29.70;44.10;;;;;;20479;6863;308785;31
2022/06/29 07:07:40;;;;;;;4.57;4.37;;;30.10;42.70;;;;;;20650;6863;117140;31
2022/06/29 07:10:07;;;;;;;4.68;4.28;;;30.20;43.70;;;;;;20464;6863;308261;31
2022/06/29 07:12:33;;;;;;;4.80;3.80;;;30.60;42.00;;;;;;20680;6863;117056;31
2022/06/29 07:14:58;;;;;;;4.00;3.80;;;30.80;42.60;;;;;;20475;6860;309139;31
2022/06/29 07:17:24;;;;;;;3.62;3.42;;;31.00;40.50;;;;;;20678;6862;116972;31
2022/06/29 07:19:49;;;;;;;4.47;4.17;;;30.80;41.20;;;;;;20659;6862;117391;31
2022/06/29 07:22:15;;;;;;;4.43;4.13;;;30.50;42.10;;;;;;20669;6862;117379;31
2022/06/29 07:24:40;;;;;;;3.85;3.72;;;30.10;42.90;;;;;;20675;6862;116932;31
2022/06/29 07:27:06;;;;;;;4.70;4.17;;;29.80;43.60;;;;;;20462;6862;309003;31
2022/06/29 07:29:31;;;;;;;4.33;4.03;;;30.00;42.50;;;;;;20679;6862;117313;31
2022/06/29 07:31:57;;;;;;;4.47;4.20;;;30.00;43.20;;;;;;20444;6862;279596;31
2022/06/29 07:34:22;;;;;;;4.30;4.00;;;30.20;42.30;;;;;;20459;6862;299715;31
2022/06/29 07:36:48;;;;;;;4.22;3.92;;;30.40;41.70;;;;;;20467;6862;308309;31
2022/06/29 07:39:15;;;;;;;4.18;3.90;;;30.60;41.80;;;;;;20687;6862;117637;31
2022/06/29 07:41:43;;;;;;;4.87;4.57;;;30.50;42.10;;;;;;20441;6862;293180;31
2022/06/29 07:44:10;;;;;;;4.23;4.03;;;30.50;41.30;;;;;;20680;6862;118354;31
2022/06/29 07:46:35;;;;;;;4.55;4.35;;;30.40;42.00;;;;;;20459;6862;309028;31
2022/06/29 07:49:01;;;;;;;4.03;3.83;;;30.40;41.10;;;;;;20681;6862;116914;31
2022/06/29 07:51:27;;;;;;;4.33;4.07;;;30.30;42.00;;;;;;20675;6863;117477;31
2022/06/29 07:53:52;;;;;;;4.37;4.13;;;30.00;42.50;;;;;;20643;6863;121277;31
2022/06/29 07:56:18;;;;;;;4.27;4.07;;;29.90;43.00;;;;;;20659;6863;117147;31
2022/06/29 07:58:43;;;;;;;4.18;3.90;;;29.70;43.40;;;;;;20466;6863;308790;31
2022/06/29 08:01:09;;;;;;;4.17;3.87;;;30.00;42.40;;;;;;20669;6863;116979;31
2022/06/29 08:03:34;;;;;;;4.28;3.87;;;30.10;43.00;;;;;;20448;6863;306679;31
2022/06/29 08:06:00;;;;;;;3.75;3.65;;;30.20;41.50;;;;;;20686;6863;117191;31
2022/06/29 08:08:27;;;;;;;4.80;3.63;;;30.10;41.90;;;;;;20683;6863;117670;31
2022/06/29 08:10:52;;;;;;;3.93;3.63;;;29.90;42.60;;;;;;20684;6863;122111;31
2022/06/29 08:13:18;;;;;;;3.90;3.70;;;29.60;43.10;;;;;;20457;6863;281794;31
2022/06/29 08:15:45;;;;;;;4.43;4.12;;;29.90;42.50;;;;;;20657;6863;117734;31
2022/06/29 08:18:10;;;;;;;4.00;3.80;;;29.90;42.80;;;;;;20465;6863;281076;31
2022/06/29 08:20:34;;;;;;;4.67;4.30;;;30.00;41.90;;;;;;20462;6863;279488;31
2022/06/29 08:23:00;;;;;;;4.33;4.17;;;30.20;41.80;;;;;;20684;6863;117474;31
2022/06/29 08:25:25;;;;;;;4.50;4.20;;;30.20;42.30;;;;;;20479;6861;278916;31
2022/06/29 08:27:52;;;;;;;4.10;3.90;;;30.30;42.00;;;;;;20463;6862;278347;31
2022/06/29 08:30:18;;;;;;;5.00;4.23;;;30.50;42.50;;;;;;20472;6862;279290;31
2022/06/29 08:32:44;;;;;;;4.30;4.10;;;30.80;41.60;;;;;;20478;6862;279699;31
2022/06/29 08:35:09;;;;;;;3.47;3.37;;;31.00;41.50;;;;;;20698;6862;117465;31
2022/06/29 08:37:39;;;;;;;4.70;4.30;;;30.90;41.70;;;;;;20463;6862;309177;31
2022/06/29 08:40:02;;;;;;;5.10;4.80;;;31.00;41.20;;;;;;20676;6862;117090;31
2022/06/29 08:42:27;;;;;;;5.23;4.73;;;30.90;41.50;;;;;;20483;6862;280322;31
2022/06/29 08:44:54;;;;;;;4.30;4.10;;;30.90;40.80;;;;;;20692;6862;119453;31
2022/06/29 08:47:19;;;;;;;4.12;3.92;;;30.90;41.40;;;;;;20482;6862;310665;31
2022/06/29 08:49:45;;;;;;;4.10;3.90;;;31.00;40.80;;;;;;20677;6862;120475;31
2022/06/29 08:52:11;;;;;;;4.43;4.13;;;31.10;41.10;;;;;;20694;6862;122514;31
2022/06/29 08:54:39;;;;;;;4.70;4.40;;;31.10;41.20;;;;;;20697;6862;117022;31
2022/06/29 08:57:05;;;;;;;5.10;4.70;;;31.10;41.00;;;;;;20475;6862;279222;31
2022/06/29 08:59:30;;;;;;;4.37;4.17;;;31.40;39.30;;;;;;20695;6862;117761;31
2022/06/29 09:01:56;;;;;;;5.00;4.60;;;31.50;39.80;;;;;;20662;6862;121927;31
2022/06/29 09:04:21;;;;;;;4.73;4.47;;;31.50;40.10;;;;;;20698;6863;118978;31
2022/06/29 09:06:47;;;;;;;4.43;4.03;;;31.40;40.00;;;;;;20698;6863;116953;31
2022/06/29 09:09:12;;;;;;;4.30;4.10;;;31.40;40.60;;;;;;20464;6863;301298;31
2022/06/29 09:11:39;;;;;;;5.00;4.60;;;31.70;39.30;;;;;;20682;6863;117226;31
2022/06/29 09:14:09;;;;;;;4.17;3.97;;;31.90;39.10;;;;;;20469;6863;282733;31
2022/06/29 09:16:33;;;;;;;4.43;4.20;;;32.10;37.20;;;;;;20486;6863;279110;31
2022/06/29 09:19:00;;;;;;;3.80;3.60;;;32.40;37.50;;;;;;20634;6863;117018;31
2022/06/29 09:21:25;;;;;;;4.40;4.10;;;32.30;38.60;;;;;;20486;6863;308631;31
2022/06/29 09:23:51;;;;;;;4.70;3.93;;;32.50;38.70;;;;;;20684;6863;117239;31
2022/06/29 09:26:17;;;;;;;3.60;3.40;;;32.40;39.10;;;;;;20689;6863;117647;31
2022/06/29 09:28:44;;;;;;;4.07;3.87;;;32.30;39.70;;;;;;20489;6863;308061;31
2022/06/29 09:31:09;;;;;;;4.17;3.97;;;32.50;37.40;;;;;;20697;6863;117982;31
2022/06/29 09:33:35;;;;;;;4.30;4.00;;;32.40;38.10;;;;;;20473;6863;340482;31
2022/06/29 09:36:07;;;;;;;4.05;3.85;;;32.50;37.00;;;;;;20495;6861;322862;31
2022/06/29 09:38:33;;;;;;;4.17;3.97;;;32.60;36.80;;;;;;20698;6862;116958;31
2022/06/29 09:41:02;;;;;;;3.97;3.77;;;32.50;37.60;;;;;;20700;6862;116947;31
2022/06/29 09:43:28;;;;;;;4.40;4.00;;;32.10;38.90;;;;;;20690;6862;116878;31
2022/06/29 09:45:54;;;;;;;4.60;4.30;;;31.90;39.40;;;;;;20465;6862;278748;31
2022/06/29 09:48:19;;;;;;;4.40;4.20;;;32.10;37.20;;;;;;20693;6862;117000;31
2022/06/29 09:50:45;;;;;;;4.70;4.40;;;32.00;37.60;;;;;;20465;6862;281603;31
2022/06/29 09:53:11;;;;;;;4.50;4.20;;;32.20;37.00;;;;;;20474;6862;300277;31
2022/06/29 09:55:36;;;;;;;3.90;3.70;;;32.30;36.60;;;;;;20458;6862;278841;31
2022/06/29 09:58:02;;;;;;;4.43;4.10;;;32.40;37.00;;;;;;20685;6862;117152;31
2022/06/29 10:03:13;;;;;;;4.17;3.97;;;32.00;37.80;;;;;;20684;6862;117065;31
2022/06/29 10:05:54;;;;;;;4.30;4.00;;;31.70;38.50;;;;;;20659;6862;122328;31
2022/06/29 10:08:20;;;;;;;4.30;4.10;;;31.30;39.20;;;;;;20676;6862;116992;31
2022/06/29 10:10:49;;;;;;;4.83;4.50;;;30.90;39.80;;;;;;20690;6862;117021;31
2022/06/29 10:13:41;;;;;;;4.28;4.07;;;30.60;40.40;;;;;;20448;6862;308815;31
2022/06/29 10:16:36;;;;;;;4.43;4.22;;;30.60;40.40;;;;;;20456;6863;311332;31
2022/06/29 10:19:31;;;;;;;4.70;4.43;;;30.80;40.10;;;;;;20461;6863;300633;31
2022/06/29 10:21:57;;;;;;;4.70;4.40;;;31.00;39.80;;;;;;20638;6863;119063;31
2022/06/29 10:24:22;;;;;;;4.78;4.37;;;30.90;39.80;;;;;;20664;6863;117592;31
2022/06/29 10:26:48;;;;;;;4.45;4.18;;;30.70;39.90;;;;;;20685;6863;118217;31
2022/06/29 10:29:19;;;;;;;5.00;4.60;;;30.50;40.50;;;;;;20670;6863;117072;31
2022/06/29 10:31:52;;;;;;;4.60;4.30;;;30.40;40.80;;;;;;20644;6863;120464;31
2022/06/29 10:34:34;;;;;;;4.33;4.03;;;30.30;41.30;;;;;;20690;6863;117605;31
2022/06/29 10:37:08;;;;;;;4.90;4.40;;;30.20;41.60;;;;;;20470;6863;309224;31
2022/06/29 10:39:50;;;;;;;4.60;4.20;;;30.40;40.30;;;;;;20664;6863;122068;31
2022/06/29 10:45:17;;;;;;;4.47;4.20;;;30.30;40.20;;;;;;20477;6863;309136;31
2022/06/29 10:47:47;;;;;;;4.47;4.27;;;30.60;39.40;;;;;;20459;6861;282141;31
2022/06/29 10:50:22;;;;;;;4.80;4.43;;;30.90;39.40;;;;;;20683;6862;117400;31
2022/06/29 10:52:46;;;;;;;4.30;4.00;;;31.10;39.80;;;;;;20658;6862;117030;31
2022/06/29 10:55:09;;;;;;;4.87;4.47;;;31.20;40.10;;;;;;20458;6862;308590;31
2022/06/29 10:57:34;;;;;;;4.07;3.78;;;31.40;38.20;;;;;;20672;6862;119525;31
2022/06/29 11:00:00;;;;;;;4.68;4.37;;;31.40;37.90;;;;;;20477;6862;278362;31
2022/06/29 11:02:25;;;;;;;4.60;4.30;;;31.50;36.30;;;;;;20476;6862;303649;31
2022/06/29 11:04:51;;;;;;;4.40;4.20;;;31.60;36.60;;;;;;20475;6862;279215;31
2022/06/29 11:12:50;;;;;;;4.83;4.43;;;31.30;38.30;;;;;;20690;6862;117749;31
2022/06/29 11:15:42;;;;;;;4.10;3.90;;;30.90;39.00;;;;;;20676;6862;117389;31
2022/06/29 11:18:08;;;;;;;4.83;4.40;;;30.60;39.60;;;;;;20689;6862;117091;31
2022/06/29 11:20:33;;;;;;;3.93;3.63;;;30.40;40.40;;;;;;20688;6862;117118;31
2022/06/29 11:22:59;;;;;;;4.80;4.50;;;30.20;40.80;;;;;;20477;6862;309046;31
2022/06/29 11:25:26;;;;;;;4.87;4.40;;;30.30;40.30;;;;;;20693;6862;117265;31
2022/06/29 11:27:53;;;;;;;4.00;3.80;;;30.20;40.70;;;;;;20667;6863;117989;31
2022/06/29 11:30:18;;;;;;;4.90;4.60;;;30.10;41.20;;;;;;20471;6863;308727;31
2022/06/29 11:32:44;;;;;;;4.53;4.22;;;30.20;40.70;;;;;;20460;6863;327024;31
2022/06/29 11:35:10;;;;;;;4.40;4.17;;;30.60;41.90;;;;;;20467;6863;338083;31
2022/06/29 11:37:35;;;;;;;4.23;4.10;;;30.90;40.20;;;;;;20670;6863;117942;31
2022/06/29 11:40:01;;;;;;;4.60;4.20;;;31.00;40.40;;;;;;20697;6863;117772;31
2022/06/29 11:45:19;;;;;;;4.60;4.30;;;31.10;41.50;;;;;;20486;6863;278793;31
2022/06/29 11:47:54;;;;;;;4.50;4.30;;;31.50;39.90;;;;;;20673;6863;118052;31
2022/06/29 11:50:23;;;;;;;5.00;4.60;;;31.70;40.40;;;;;;20691;6863;117420;31
2022/06/29 11:52:48;;;;;;;4.70;4.37;;;31.70;40.30;;;;;;20466;6863;308695;31
2022/06/29 11:55:14;;;;;;;4.87;4.57;;;32.00;39.60;;;;;;20677;6863;117081;31
2022/06/29 11:57:39;;;;;;;4.78;4.50;;;32.10;39.00;;;;;;20451;6863;309050;31
2022/06/29 12:00:06;;;;;;;4.90;4.60;;;32.20;37.80;;;;;;20479;6861;279900;31
2022/06/29 12:02:34;;;;;;;4.80;4.37;;;32.40;38.30;;;;;;20695;6862;117422;31
2022/06/29 12:04:56;;;;;;;5.23;4.93;;;32.20;38.40;;;;;;20689;6862;116925;31
2022/06/29 12:07:22;;;;;;;4.40;4.20;;;31.70;38.80;;;;;;20693;6862;116954;31
2022/06/29 12:09:51;;;;;;;5.00;4.60;;;31.20;39.20;;;;;;20680;6862;117349;31
2022/06/29 12:12:17;;;;;;;4.80;4.50;;;30.90;39.90;;;;;;20704;6862;117608;31
2022/06/29 12:14:42;;;;;;;5.03;4.70;;;30.60;40.50;;;;;;20702;6862;117406;31
2022/06/29 12:17:07;;;;;;;4.83;4.50;;;30.50;40.90;;;;;;20699;6862;117445;31
2022/06/29 12:19:33;;;;;;;5.25;4.80;;;30.30;41.20;;;;;;20469;6862;279530;31
2022/06/29 12:21:58;;;;;;;4.63;4.33;;;30.50;41.20;;;;;;20696;6862;117270;31
2022/06/29 12:24:24;;;;;;;4.83;4.50;;;30.50;41.10;;;;;;20698;6862;118102;31
2022/06/29 12:26:49;;;;;;;4.97;4.68;;;30.30;41.50;;;;;;20483;6862;278276;31
2022/06/29 12:29:15;;;;;;;4.90;4.60;;;30.50;40.80;;;;;;20690;6862;121028;31
2022/06/29 12:31:41;;;;;;;4.85;4.55;;;30.50;41.30;;;;;;20675;6862;117897;31
2022/06/29 12:34:07;;;;;;;4.55;4.30;;;30.30;41.30;;;;;;20476;6862;311856;31
2022/06/29 12:36:33;;;;;;;4.33;4.13;;;30.60;41.00;;;;;;20696;6862;117223;31
2022/06/29 12:38:59;;;;;;;4.60;4.37;;;30.60;41.20;;;;;;20695;6863;116999;31
2022/06/29 12:41:24;;;;;;;4.97;4.67;;;30.50;41.70;;;;;;20697;6863;117566;31
2022/06/29 12:43:50;;;;;;;4.90;4.60;;;30.50;41.70;;;;;;20452;6863;291567;31
2022/06/29 12:46:15;;;;;;;5.40;5.10;;;30.70;41.70;;;;;;20475;6863;278274;31
2022/06/29 12:48:41;;;;;;;5.53;5.23;;;31.00;40.10;;;;;;20472;6863;279494;31
2022/06/29 12:51:06;;;;;;;4.80;4.50;;;31.10;40.00;;;;;;20692;6863;116870;31
2022/06/29 12:53:32;;;;;;;5.50;4.60;;;30.90;40.70;;;;;;20681;6863;117648;31
2022/06/29 12:55:59;;;;;;;4.70;4.40;;;30.70;40.90;;;;;;20470;6863;279326;31
2022/06/29 12:58:24;;;;;;;4.80;4.40;;;30.80;40.40;;;;;;20476;6863;278705;31
2022/06/29 13:00:50;;;;;;;4.53;4.23;;;31.00;39.80;;;;;;20690;6863;116896;31
2022/06/29 13:03:17;;;;;;;4.95;4.55;;;31.00;40.00;;;;;;20523;6863;336544;31